ADDS METAR Data INFO
IDs: Format: Raw Decoded Include TAF

Data at: 0004 UTC 24 Feb 2018

KMOR 232030Z AUTO VRB06G12KT 10SM FEW065 25/13 A3027 RMK A01
KMOR 232015Z AUTO 32007G12KT 300V360 10SM FEW060 SCT070 25/13 A3028 RMK A01
KMOR 231955Z AUTO 31008KT 260V320 10SM FEW049 25/13 A3029 RMK A01
KMOR 231935Z AUTO 25008G16KT 10SM SCT048 BKN060 26/13 A3030 RMK A01
KMOR 231915Z AUTO 26011KT 10SM FEW043 FEW050 SCT060 25/14 A3031 RMK A01
KMOR 231855Z AUTO 24009KT 10SM FEW043 SCT050 24/14 A3032 RMK A01
KMOR 231835Z AUTO 27008KT 10SM FEW042 SCT060 24/14 A3033 RMK A01
KMOR 231815Z AUTO 29010KT 10SM BKN042 OVC055 25/15 A3034 RMK A01
KMOR 231755Z AUTO 32008G14KT 10SM BKN042 BKN050 23/15 A3035 RMK A01
KMOR 231735Z AUTO 28008G14KT 10SM BKN040 BKN049 BKN055 24/14 A3036 RMK A01
KMOR 231715Z AUTO 29007G13KT 250V310 10SM SCT039 SCT045 24/15 A3037 RMK A01
KMOR 231655Z AUTO 29007G12KT 10SM CLR 23/15 A3038 RMK A01
KMOR 231635Z AUTO 23007KT 220V280 10SM CLR 23/15 A3038 RMK A01
KMOR 231615Z AUTO 22008KT 190V260 10SM CLR 22/15 A3038 RMK A01
KMOR 231555Z AUTO 00000KT 10SM CLR 22/15 A3038 RMK A01
KMOR 231535Z AUTO VRB03KT 10SM CLR 21/16 A3038 RMK A01
KMOR 231515Z AUTO 00000KT 10SM CLR 20/15 A3037 RMK A01
KMOR 231455Z AUTO 36004KT 10SM CLR 20/16 A3037 RMK A01
KMOR 231435Z AUTO 00000KT 10SM CLR 19/15 A3037 RMK A01
KMOR 231415Z AUTO 00000KT 10SM CLR 18/15 A3037 RMK A01
KMOR 231355Z AUTO 00000KT 8SM CLR 17/15 A3037 RMK A01
KMOR 231335Z AUTO 00000KT 10SM CLR 16/15 A3037 RMK A01
KMOR 231315Z AUTO 00000KT 8SM CLR 14/14 A3037 RMK A01
KMOR 231255Z AUTO 00000KT 7SM CLR 13/13 A3037 RMK A01
KMOR 231235Z AUTO 12004KT 3SM BR CLR 13/13 A3037 RMK A01
KMOR 231215Z AUTO 00000KT 7SM CLR 12/12 A3037 RMK A01
KMOR 231155Z AUTO 00000KT 6SM BR FEW049 12/12 A3037 RMK A01
KMOR 231135Z AUTO 17004KT 7SM CLR 11/11 A3037 RMK A01
KMOR 231115Z AUTO 00000KT 7SM FEW050 FEW055 13/13 A3037 RMK A01
KMOR 231055Z AUTO 00000KT 10SM FEW050 14/14 A3037 RMK A01
KMOR 231035Z AUTO 00000KT 9SM FEW050 14/14 A3037 RMK A01
KMOR 231015Z AUTO 00000KT 10SM FEW050 FEW055 13/13 A3036 RMK A01
KMOR 230955Z AUTO 00000KT 10SM FEW050 FEW055 13/12 A3036 RMK A01
KMOR 230935Z AUTO 00000KT 10SM FEW050 SCT060 13/13 A3037 RMK A01
KMOR 230915Z AUTO 00000KT 10SM BKN055 14/14 A3037 RMK A01
KMOR 230855Z AUTO 36003KT 10SM SCT055 13/13 A3036 RMK A01
KMOR 230835Z AUTO 00000KT 10SM SCT055 14/14 A3036 RMK A01
KMOR 230815Z AUTO 00000KT 10SM BKN055 15/15 A3036 RMK A01
KMOR 230755Z AUTO 00000KT 10SM OVC055 16/15 A3036 RMK A01
KMOR 230735Z AUTO 00000KT 10SM OVC050 15/14 A3036 RMK A01
KMOR 230715Z AUTO 00000KT 10SM BKN050 15/14 A3036 RMK A01
KMOR 230655Z AUTO 00000KT 10SM SCT047 SCT055 15/14 A3036 RMK A01
KMOR 230635Z AUTO 00000KT 10SM FEW041 SCT049 15/14 A3037 RMK A01
KMOR 230615Z AUTO 00000KT 10SM SCT043 BKN050 15/14 A3037 RMK A01
KMOR 230555Z AUTO 00000KT 10SM BKN046 15/14 A3037 RMK A01
KMOR 230535Z AUTO 00000KT 10SM BKN046 BKN065 15/14 A3037 RMK A01
KMOR 230515Z AUTO 00000KT 10SM SCT045 15/14 A3037 RMK A01
KMOR 230455Z AUTO 00000KT 10SM FEW046 15/14 A3037 RMK A01
KMOR 230435Z AUTO 00000KT 10SM SCT045 16/14 A3037 RMK A01
KMOR 230415Z AUTO 00000KT 10SM SCT042 SCT048 16/15 A3037 RMK A01
KMOR 230355Z AUTO 00000KT 10SM SCT042 16/15 A3037 RMK A01
KMOR 230335Z AUTO 00000KT 10SM FEW038 BKN046 17/15 A3037 RMK A01
KMOR 230315Z AUTO 00000KT 10SM SCT045 17/15 A3036 RMK A01
KMOR 230255Z AUTO 00000KT 9SM CLR 18/15 A3036 RMK A01
KMOR 230235Z AUTO 00000KT 10SM CLR 18/15 A3036 RMK A01
KMOR 230215Z AUTO 00000KT 10SM CLR 18/15 A3036 RMK A01
KMOR 230155Z AUTO 00000KT 10SM CLR 18/15 A3036 RMK A01
KMOR 230135Z AUTO 00000KT 10SM CLR 19/15 A3036 RMK A01
KMOR 230115Z AUTO 00000KT 10SM CLR 19/15 A3035 RMK A01
KMOR 230055Z AUTO 16003KT 10SM CLR 19/15 A3034 RMK A01
KMOR 230035Z AUTO 00000KT 10SM CLR 21/15 A3034 RMK A01
KMOR 230015Z AUTO 00000KT 10SM FEW090 21/15 A3034 RMK A01
KMOR 222355Z AUTO 30003KT 10SM BKN090 22/15 A3033 RMK A01
KMOR 222335Z AUTO 00000KT 10SM FEW080 OVC090 22/15 A3033 RMK A01
KMOR 222315Z AUTO 29003KT 10SM BKN080 OVC095 23/15 A3033 RMK A01
KMOR 222255Z AUTO 33004KT 10SM FEW075 OVC085 23/15 A3034 RMK A01
KMOR 222235Z AUTO 32006KT 10SM BKN090 24/15 A3034 RMK A01
KMOR 222215Z AUTO 33006KT 10SM BKN095 24/15 A3032 RMK A01
KMOR 222155Z AUTO 30006KT 10SM BKN095 25/14 A3033 RMK A01
KMOR 222135Z AUTO 29008G13KT 10SM BKN095 25/13 A3032 RMK A01
KMOR 222115Z AUTO VRB05KT 10SM SCT095 25/14 A3032 RMK A01
KMOR 222055Z AUTO 27007G12KT 10SM FEW095 25/14 A3033 RMK A01
KMOR 222035Z AUTO 24007KT 10SM CLR 25/15 A3033 RMK A01
KMOR 222015Z AUTO 26008KT 10SM CLR 25/15 A3033 RMK A01
KMOR 221955Z AUTO 26009G16KT 10SM FEW090 25/15 A3034 RMK A01
KMOR 221935Z AUTO 29010KT 10SM CLR 25/15 A3035 RMK A01
KMOR 221915Z AUTO 28011G17KT 250V310 10SM CLR 25/14 A3035 RMK A01
KMOR 221855Z AUTO 27007G19KT 10SM FEW045 25/15 A3036 RMK A01
KMOR 221835Z AUTO 25014KT 10SM FEW045 26/14 A3036 RMK A01
KMOR 221815Z AUTO 24013KT 10SM FEW043 26/15 A3037 RMK A01
KMOR 221755Z AUTO 26014G20KT 10SM FEW043 26/15 A3038 RMK A01
KMOR 221735Z AUTO 25018G26KT 10SM CLR 25/14 A3038 RMK A01
KMOR 221715Z AUTO 25019G25KT 10SM CLR 25/14 A3038 RMK A01
KMOR 221655Z AUTO 25015G22KT 10SM CLR 25/15 A3039 RMK A01
KMOR 221635Z AUTO 24015G23KT 10SM SCT075 24/15 A3039 RMK A01
KMOR 221615Z AUTO 25013G23KT 10SM OVC075 23/15 A3040 RMK A01
KMOR 221555Z AUTO 24016G23KT 10SM BKN070 OVC080 23/15 A3040 RMK A01
KMOR 221535Z AUTO 25013G18KT 10SM SCT060 OVC070 22/16 A3040 RMK A01
KMOR 221515Z AUTO 24012G23KT 9SM FEW049 BKN060 OVC070 22/15 A3040 RMK A01
KMOR 221455Z AUTO 25011KT 10SM SCT060 SCT075 BKN085 22/16 A3040 RMK A01
KMOR 221435Z AUTO 24008G13KT 10SM CLR 21/16 A3040 RMK A01
KMOR 221415Z AUTO 27008KT 10SM CLR 21/16 A3040 RMK A01
KMOR 221355Z AUTO 26007KT 10SM BKN050 BKN055 20/16 A3039 RMK A01
KMOR 221335Z AUTO 26007KT 10SM BKN050 OVC055 19/16 A3039 RMK A01
KMOR 221315Z AUTO 00000KT 10SM BKN050 OVC055 16/15 A3038 RMK A01
KMOR 221255Z AUTO 00000KT 10SM BKN055 14/13 A3037 RMK A01
KMOR 221235Z AUTO 00000KT 10SM FEW055 13/12 A3036 RMK A01
KMOR 221215Z AUTO 00000KT 10SM CLR 13/13 A3035 RMK A01